createdAt,value
2017-01-20T00:00:50.295Z,-10.02
2017-01-20T00:01:50.269Z,-9.92
2017-01-20T00:02:50.247Z,-9.89
2017-01-20T00:03:50.225Z,-9.94
2017-01-20T00:04:50.199Z,-9.94
2017-01-20T00:05:50.180Z,-9.95
2017-01-20T00:06:50.152Z,-9.84
2017-01-20T00:07:50.133Z,-9.83
2017-01-20T00:08:50.105Z,-9.78
2017-01-20T00:09:50.092Z,-9.83
2017-01-20T00:10:50.060Z,-9.83
2017-01-20T00:11:50.041Z,-9.83
2017-01-20T00:12:50.014Z,-9.81
2017-01-20T00:13:49.992Z,-9.77
2017-01-20T00:14:49.967Z,-9.8
2017-01-20T00:15:50.342Z,-9.81
2017-01-20T00:16:50.328Z,-9.81
2017-01-20T00:17:49.898Z,-9.71
2017-01-20T00:18:49.875Z,-9.76
2017-01-20T00:19:49.860Z,-9.8
2017-01-20T00:20:49.830Z,-9.81
2017-01-20T00:21:49.809Z,-9.73
2017-01-20T00:22:49.783Z,-9.68
2017-01-20T00:23:49.759Z,-9.66
2017-01-20T00:24:49.739Z,-9.7
2017-01-20T00:25:49.717Z,-9.63
2017-01-20T00:26:49.694Z,-9.63
2017-01-20T00:27:49.680Z,-9.7
2017-01-20T00:28:49.649Z,-9.71
2017-01-20T00:29:49.620Z,-9.78
2017-01-20T00:30:49.606Z,-9.81
2017-01-20T00:31:49.579Z,-9.81
2017-01-20T00:32:49.553Z,-9.89
2017-01-20T00:33:49.529Z,-10.01
2017-01-20T00:34:49.513Z,-9.99
2017-01-20T00:35:49.485Z,-10.04
2017-01-20T00:36:49.463Z,-10.16
2017-01-20T00:37:49.444Z,-10.26
2017-01-20T00:38:49.418Z,-10.26
2017-01-20T00:39:49.396Z,-10.27
2017-01-20T00:40:49.371Z,-10.38
2017-01-20T00:41:49.350Z,-10.37
2017-01-20T00:42:49.352Z,-10.48
2017-01-20T00:43:49.300Z,-10.48
2017-01-20T00:44:49.279Z,-10.52
2017-01-20T00:45:49.256Z,-10.54
2017-01-20T00:46:49.234Z,-10.55
2017-01-20T00:47:49.213Z,-10.61
2017-01-20T00:48:49.191Z,-10.54
2017-01-20T00:49:49.167Z,-10.54
2017-01-20T00:50:49.142Z,-10.41
2017-01-20T00:51:49.122Z,-10.26
2017-01-20T00:52:49.092Z,-10.28
2017-01-20T00:53:49.070Z,-10.3
2017-01-20T00:54:49.048Z,-10.09
2017-01-20T00:55:49.026Z,-10.07
2017-01-20T00:56:49.034Z,-10.09
2017-01-20T00:57:48.981Z,-9.91
2017-01-20T00:58:48.958Z,-9.8
2017-01-20T00:59:48.938Z,-9.8
2017-01-20T01:00:48.911Z,-9.73
2017-01-20T01:01:48.892Z,-9.74
2017-01-20T01:02:48.865Z,-9.76
2017-01-20T01:03:48.844Z,-9.65
2017-01-20T01:04:48.818Z,-9.56
2017-01-20T01:05:48.794Z,-9.66
2017-01-20T01:06:48.771Z,-9.6
2017-01-20T01:07:48.748Z,-9.57
2017-01-20T01:08:48.728Z,-9.56
2017-01-20T01:09:48.708Z,-9.71
2017-01-20T01:10:48.686Z,-9.66
2017-01-20T01:11:48.660Z,-9.68
2017-01-20T01:12:48.635Z,-9.77
2017-01-20T01:13:48.609Z,-9.8
2017-01-20T01:14:48.589Z,-9.95
2017-01-20T01:15:48.569Z,-10.02
2017-01-20T01:16:48.545Z,-10.07
2017-01-20T01:17:48.519Z,-10.09
2017-01-20T01:18:48.492Z,-10.15
2017-01-20T01:19:48.474Z,-10.07
2017-01-20T01:20:48.449Z,-10.09
2017-01-20T01:21:48.423Z,-10.3
2017-01-20T01:22:48.404Z,-10.2
2017-01-20T01:23:48.384Z,-10.19
2017-01-20T01:24:48.357Z,-10.22
2017-01-20T01:25:48.331Z,-10.34
2017-01-20T01:26:48.313Z,-10.23
2017-01-20T01:27:48.288Z,-10.26
2017-01-20T01:28:48.293Z,-10.26
2017-01-20T01:29:48.241Z,-10.27
2017-01-20T01:30:48.220Z,-10.3
2017-01-20T01:31:48.197Z,-10.27
2017-01-20T01:32:48.175Z,-10.33
2017-01-20T01:33:48.155Z,-10.38
2017-01-20T01:34:48.130Z,-10.49
2017-01-20T01:35:48.108Z,-10.47
2017-01-20T01:36:48.079Z,-10.59
2017-01-20T01:37:48.058Z,-10.59
2017-01-20T01:38:48.036Z,-10.52
2017-01-20T01:39:48.011Z,-10.72
2017-01-20T01:40:47.987Z,-10.58
2017-01-20T01:41:47.966Z,-10.65
2017-01-20T01:42:47.942Z,-10.66
2017-01-20T01:43:47.951Z,-10.69
2017-01-20T01:44:47.897Z,-10.72
2017-01-20T01:45:47.869Z,-10.66
2017-01-20T01:46:47.952Z,-10.75
2017-01-20T01:47:47.832Z,-10.69
2017-01-20T01:48:47.806Z,-10.72
2017-01-20T01:49:47.781Z,-10.78
2017-01-20T01:50:48.157Z,-10.73
2017-01-20T01:51:47.735Z,-10.75
2017-01-20T01:52:47.712Z,-10.83
2017-01-20T01:53:47.688Z,-10.75
2017-01-20T01:54:47.667Z,-10.69
2017-01-20T01:55:47.649Z,-10.76
2017-01-20T01:56:47.622Z,-10.83
2017-01-20T01:57:47.600Z,-10.76
2017-01-20T01:58:47.576Z,-10.69
2017-01-20T01:59:47.554Z,-10.75
2017-01-20T02:00:47.530Z,-10.7
2017-01-20T02:01:47.506Z,-10.65
2017-01-20T02:02:52.683Z,-10.58
2017-01-20T02:03:47.461Z,-10.51
2017-01-20T02:04:47.436Z,-10.38
2017-01-20T02:05:47.414Z,-10.4
2017-01-20T02:06:47.393Z,-10.38
2017-01-20T02:07:47.373Z,-10.41
2017-01-20T02:08:47.347Z,-10.45
2017-01-20T02:09:47.322Z,-10.4
2017-01-20T02:10:47.299Z,-10.4
2017-01-20T02:11:47.278Z,-10.45
2017-01-20T02:12:47.252Z,-10.41
2017-01-20T02:13:47.232Z,-10.55
2017-01-20T02:14:47.208Z,-10.54
2017-01-20T02:15:47.182Z,-10.52
2017-01-20T02:16:47.159Z,-10.52
2017-01-20T02:17:47.136Z,-10.52
2017-01-20T02:18:47.117Z,-10.58
2017-01-20T02:19:47.092Z,-10.7
2017-01-20T02:20:47.067Z,-10.63
2017-01-20T02:21:47.049Z,-10.57
2017-01-20T02:22:47.022Z,-10.69
2017-01-20T02:23:47.010Z,-10.69
2017-01-20T02:24:46.973Z,-10.69
2017-01-20T02:25:46.953Z,-10.63
2017-01-20T02:26:46.928Z,-10.72
2017-01-20T02:27:46.906Z,-10.7
2017-01-20T02:28:46.885Z,-10.75
2017-01-20T02:29:46.858Z,-10.65
2017-01-20T02:30:46.847Z,-10.68
2017-01-20T02:31:46.835Z,-10.63
2017-01-20T02:32:46.795Z,-10.76
2017-01-20T02:33:46.768Z,-10.81
2017-01-20T02:34:46.741Z,-10.78
2017-01-20T02:35:46.723Z,-10.78
2017-01-20T02:36:46.694Z,-10.72
2017-01-20T02:37:46.675Z,-10.68
2017-01-20T02:38:46.646Z,-10.85
2017-01-20T02:39:46.634Z,-10.76
2017-01-20T02:40:46.602Z,-10.78
2017-01-20T02:41:46.581Z,-10.68
2017-01-20T02:42:46.587Z,-10.72
2017-01-20T02:43:46.544Z,-10.69
2017-01-20T02:44:46.512Z,-10.7
2017-01-20T02:45:46.886Z,-10.65
2017-01-20T02:46:46.459Z,-10.69
2017-01-20T02:47:46.442Z,-10.81
2017-01-20T02:48:46.417Z,-10.79
2017-01-20T02:49:46.394Z,-10.72
2017-01-20T02:50:46.373Z,-10.91
2017-01-20T02:51:46.350Z,-10.83
2017-01-20T02:52:46.327Z,-10.72
2017-01-20T02:53:46.300Z,-10.88
2017-01-20T02:54:46.278Z,-10.79
2017-01-20T02:55:46.261Z,-10.79
2017-01-20T02:56:46.232Z,-10.87
2017-01-20T02:57:46.214Z,-10.75
2017-01-20T02:58:46.197Z,-11.05
2017-01-20T02:59:46.164Z,-10.87
2017-01-20T03:00:46.139Z,-10.81
2017-01-20T03:01:46.118Z,-10.73
2017-01-20T03:02:46.093Z,-10.85
2017-01-20T03:03:46.072Z,-10.69
2017-01-20T03:04:46.048Z,-10.68
2017-01-20T03:05:46.025Z,-10.73
2017-01-20T03:06:45.999Z,-10.75
2017-01-20T03:07:45.975Z,-10.79
2017-01-20T03:08:45.954Z,-10.79
2017-01-20T03:09:45.931Z,-10.75
2017-01-20T03:10:45.911Z,-10.94
2017-01-20T03:11:45.884Z,-10.79
2017-01-20T03:12:45.859Z,-10.91
2017-01-20T03:13:45.835Z,-10.88
2017-01-20T03:14:45.811Z,-10.78
2017-01-20T03:15:45.794Z,-10.81
2017-01-20T03:16:45.764Z,-10.83
2017-01-20T03:17:45.746Z,-10.81
2017-01-20T03:18:45.721Z,-10.81
2017-01-20T03:19:45.697Z,-10.81
2017-01-20T03:20:45.672Z,-10.87
2017-01-20T03:21:45.652Z,-10.97
2017-01-20T03:22:45.624Z,-10.79
2017-01-20T03:23:45.602Z,-10.89
2017-01-20T03:24:45.578Z,-10.85
2017-01-20T03:25:45.555Z,-10.88
2017-01-20T03:26:45.535Z,-10.83
2017-01-20T03:27:45.513Z,-10.83
2017-01-20T03:28:45.490Z,-10.79
2017-01-20T03:29:45.467Z,-10.85
2017-01-20T03:30:45.443Z,-10.72
2017-01-20T03:31:45.420Z,-10.68
2017-01-20T03:32:45.396Z,-10.73
2017-01-20T03:33:45.400Z,-10.63
2017-01-20T03:34:45.349Z,-10.69
2017-01-20T03:35:45.324Z,-10.57
2017-01-20T03:36:45.301Z,-10.57
2017-01-20T03:37:45.284Z,-10.44
2017-01-20T03:38:45.260Z,-10.41
2017-01-20T03:39:45.247Z,-10.49
2017-01-20T03:40:45.207Z,-10.36
2017-01-20T03:41:45.187Z,-10.33
2017-01-20T03:42:45.173Z,-10.27
2017-01-20T03:43:45.142Z,-10.23
2017-01-20T03:44:45.118Z,-10.23
2017-01-20T03:45:45.096Z,-10.23
2017-01-20T03:46:45.073Z,-10.3
2017-01-20T03:47:45.046Z,-10.19
2017-01-20T03:48:45.030Z,-10.2
2017-01-20T03:49:45.004Z,-10.27
2017-01-20T03:50:44.979Z,-10.26
2017-01-20T03:51:44.956Z,-10.22
2017-01-20T03:52:44.933Z,-10.27
2017-01-20T03:53:44.908Z,-10.27
2017-01-20T03:54:44.887Z,-10.2
2017-01-20T03:55:44.861Z,-10.26
2017-01-20T03:56:44.845Z,-10.19
2017-01-20T03:57:44.821Z,-10.17
2017-01-20T03:58:44.831Z,-10.26
2017-01-20T03:59:44.774Z,-10.22
2017-01-20T04:00:44.747Z,-10.22
2017-01-20T04:01:44.724Z,-10.26
2017-01-20T04:02:44.697Z,-10.2
2017-01-20T04:03:44.678Z,-10.13
2017-01-20T04:04:44.653Z,-10.1
2017-01-20T04:05:44.650Z,-9.98
2017-01-20T04:06:44.606Z,-9.92
2017-01-20T04:07:44.588Z,-9.97
2017-01-20T04:08:44.559Z,-9.86
2017-01-20T04:09:44.538Z,-9.88
2017-01-20T04:10:44.514Z,-9.8
2017-01-20T04:11:44.489Z,-9.81
2017-01-20T04:12:44.468Z,-9.81
2017-01-20T04:13:44.443Z,-9.68
2017-01-20T04:14:44.422Z,-9.77
2017-01-20T04:15:44.402Z,-9.59
2017-01-20T04:16:44.374Z,-9.62
2017-01-20T04:17:44.356Z,-9.66
2017-01-20T04:18:44.328Z,-9.74
2017-01-20T04:19:44.312Z,-9.59
2017-01-20T04:20:44.281Z,-9.57
2017-01-20T04:21:44.259Z,-9.48
2017-01-20T04:22:44.239Z,-9.59
2017-01-20T04:23:44.216Z,-9.59
2017-01-20T04:24:44.188Z,-9.52
2017-01-20T04:25:44.183Z,-9.48
2017-01-20T04:26:44.146Z,-9.59
2017-01-20T04:27:44.124Z,-9.57
2017-01-20T04:28:44.099Z,-9.62
2017-01-20T04:29:44.076Z,-9.71
2017-01-20T04:30:44.056Z,-9.74
2017-01-20T04:31:44.037Z,-9.78
2017-01-20T04:32:44.007Z,-9.83
2017-01-20T04:33:43.983Z,-9.86
2017-01-20T04:34:43.962Z,-9.81
2017-01-20T04:35:43.939Z,-9.92
2017-01-20T04:36:43.911Z,-9.91
2017-01-20T04:37:43.891Z,-9.95
2017-01-20T04:38:43.865Z,-9.97
2017-01-20T04:39:43.844Z,-10.09
2017-01-20T04:40:43.820Z,-10.13
2017-01-20T04:41:43.796Z,-10.17
2017-01-20T04:42:43.774Z,-10.2
2017-01-20T04:43:43.761Z,-10.22
2017-01-20T04:44:43.728Z,-10.26
2017-01-20T04:45:43.707Z,-10.33
2017-01-20T04:46:43.685Z,-10.33
2017-01-20T04:47:43.666Z,-10.37
2017-01-20T04:48:43.638Z,-10.38
2017-01-20T04:49:43.615Z,-10.47
2017-01-20T04:50:43.594Z,-10.33
2017-01-20T04:51:43.572Z,-10.22
2017-01-20T04:52:43.546Z,-10.26
2017-01-20T04:53:43.525Z,-10.2
2017-01-20T04:54:43.504Z,-10.22
2017-01-20T04:55:43.482Z,-10.06
2017-01-20T04:56:43.456Z,-10.06
2017-01-20T04:57:43.438Z,-9.98
2017-01-20T04:58:43.410Z,-9.98
2017-01-20T04:59:43.392Z,-9.91
2017-01-20T05:00:43.364Z,-9.95
2017-01-20T05:01:43.339Z,-9.92
2017-01-20T05:02:43.316Z,-9.88
2017-01-20T05:03:43.296Z,-9.84
2017-01-20T05:04:43.276Z,-9.81
2017-01-20T05:05:43.250Z,-9.81
2017-01-20T05:06:43.225Z,-9.84
2017-01-20T05:07:43.202Z,-9.95
2017-01-20T05:08:43.183Z,-10.02
2017-01-20T05:09:43.156Z,-10.01
2017-01-20T05:10:43.136Z,-10.06
2017-01-20T05:11:43.144Z,-10.06
2017-01-20T05:12:43.091Z,-10.09
2017-01-20T05:13:43.069Z,-10.23
2017-01-20T05:14:43.043Z,-10.23
2017-01-20T05:15:43.021Z,-10.12
2017-01-20T05:16:43.001Z,-10.19
2017-01-20T05:17:42.972Z,-10.2
2017-01-20T05:18:42.953Z,-10.19
2017-01-20T05:19:42.930Z,-10.17
2017-01-20T05:20:42.907Z,-10.09
2017-01-20T05:21:42.887Z,-10.16
2017-01-20T05:22:42.873Z,-10.16
2017-01-20T05:23:42.839Z,-10.1
2017-01-20T05:24:42.816Z,-10.09
2017-01-20T05:25:42.794Z,-10.1
2017-01-20T05:26:42.767Z,-10.12
2017-01-20T05:27:42.746Z,-10.1
2017-01-20T05:28:43.124Z,-10.15
2017-01-20T05:29:42.702Z,-10.13
2017-01-20T05:30:42.677Z,-10.06
2017-01-20T05:31:42.654Z,-10.17
2017-01-20T05:32:42.632Z,-10.15
2017-01-20T05:33:42.608Z,-10.07
2017-01-20T05:34:42.589Z,-10.12
2017-01-20T05:35:42.558Z,-10.09
2017-01-20T05:36:42.539Z,-9.94
2017-01-20T05:37:42.520Z,-9.99
2017-01-20T05:38:42.491Z,-9.98
2017-01-20T05:39:42.473Z,-10.07
2017-01-20T05:40:42.451Z,-10.07
2017-01-20T05:41:42.450Z,-9.98
2017-01-20T05:42:42.400Z,-9.95
2017-01-20T05:43:42.381Z,-10.06
2017-01-20T05:44:42.356Z,-9.97
2017-01-20T05:45:42.334Z,-10.04
2017-01-20T05:46:42.314Z,-10.01
2017-01-20T05:47:42.290Z,-10.07
2017-01-20T05:48:42.271Z,-9.99
2017-01-20T05:49:42.283Z,-10.12
2017-01-20T05:50:42.257Z,-10.07
2017-01-20T05:51:42.235Z,-10.07
2017-01-20T05:52:42.217Z,-10.06
2017-01-20T05:53:42.188Z,-9.95
2017-01-20T05:54:42.167Z,-9.95
2017-01-20T05:55:42.145Z,-9.95
2017-01-20T05:56:42.123Z,-9.91
2017-01-20T05:57:42.101Z,-9.89
2017-01-20T05:58:42.076Z,-9.84
2017-01-20T05:59:42.056Z,-9.88
2017-01-20T06:00:42.031Z,-9.8
2017-01-20T06:01:42.004Z,-9.81
2017-01-20T06:02:41.980Z,-9.84
2017-01-20T06:03:41.961Z,-9.77
2017-01-20T06:04:41.945Z,-9.68
2017-01-20T06:05:41.918Z,-9.63
2017-01-20T06:06:41.889Z,-9.68
2017-01-20T06:07:41.867Z,-9.66
2017-01-20T06:08:41.853Z,-9.66
2017-01-20T06:09:41.821Z,-9.68
2017-01-20T06:10:41.797Z,-9.73
2017-01-20T06:11:41.780Z,-9.63
2017-01-20T06:12:41.755Z,-9.68
2017-01-20T06:13:41.730Z,-9.53
2017-01-20T06:14:41.711Z,-9.55
2017-01-20T06:15:41.687Z,-9.57
2017-01-20T06:16:41.663Z,-9.5
2017-01-20T06:17:41.638Z,-9.52
2017-01-20T06:18:41.620Z,-9.52
2017-01-20T06:19:41.592Z,-9.33
2017-01-20T06:20:41.569Z,-9.34
2017-01-20T06:21:41.550Z,-9.31
2017-01-20T06:22:41.522Z,-9.34
2017-01-20T06:23:41.506Z,-9.38
2017-01-20T06:24:41.478Z,-9.4
2017-01-20T06:25:41.456Z,-9.37
2017-01-20T06:26:41.435Z,-9.48
2017-01-20T06:27:41.414Z,-9.41
2017-01-20T06:28:41.387Z,-9.53
2017-01-20T06:29:41.367Z,-9.57
2017-01-20T06:30:41.342Z,-9.56
2017-01-20T06:31:41.317Z,-9.68
2017-01-20T06:32:41.300Z,-9.66
2017-01-20T06:33:41.278Z,-9.76
2017-01-20T06:34:41.254Z,-9.8
2017-01-20T06:35:41.231Z,-9.8
2017-01-20T06:36:41.208Z,-9.77
2017-01-20T06:37:41.182Z,-9.8
2017-01-20T06:38:41.170Z,-9.83
2017-01-20T06:39:41.138Z,-9.78
2017-01-20T06:40:41.180Z,-9.89
2017-01-20T06:41:41.098Z,-9.86
2017-01-20T06:42:41.069Z,-9.89
2017-01-20T06:43:41.051Z,-9.88
2017-01-20T06:44:41.026Z,-9.94
2017-01-20T06:45:41.007Z,-9.84
2017-01-20T06:46:40.981Z,-9.81
2017-01-20T06:47:40.957Z,-9.8
2017-01-20T06:48:40.931Z,-9.8
2017-01-20T06:49:40.916Z,-9.78
2017-01-20T06:50:40.884Z,-9.88
2017-01-20T06:51:40.868Z,-9.97
2017-01-20T06:52:40.849Z,-9.92
2017-01-20T06:53:40.820Z,-9.94
2017-01-20T06:54:40.795Z,-10.06
2017-01-20T06:55:40.771Z,-9.91
2017-01-20T06:56:40.752Z,-9.94
2017-01-20T06:57:40.727Z,-9.94
2017-01-20T06:58:40.706Z,-9.97
2017-01-20T06:59:40.936Z,-10.02
2017-01-20T07:00:40.660Z,-9.89
2017-01-20T07:01:40.642Z,-9.84
2017-01-20T07:02:40.616Z,-9.89
2017-01-20T07:03:40.597Z,-9.95
2017-01-20T07:04:40.573Z,-9.94
2017-01-20T07:05:40.549Z,-9.94
2017-01-20T07:06:40.523Z,-9.86
2017-01-20T07:07:40.501Z,-9.92
2017-01-20T07:08:40.478Z,-9.97
2017-01-20T07:09:40.457Z,-9.86
2017-01-20T07:10:40.432Z,-9.84
2017-01-20T07:11:40.410Z,-9.91
2017-01-20T07:12:40.388Z,-9.88
2017-01-20T07:13:40.362Z,-9.89
2017-01-20T07:14:40.346Z,-9.77
2017-01-20T07:15:40.317Z,-9.8
2017-01-20T07:16:40.295Z,-9.78
2017-01-20T07:17:40.272Z,-9.84
2017-01-20T07:18:40.247Z,-9.78
2017-01-20T07:19:40.222Z,-9.62
2017-01-20T07:20:40.601Z,-9.57
2017-01-20T07:21:40.185Z,-9.55
2017-01-20T07:22:40.159Z,-9.34
2017-01-20T07:23:40.135Z,-9.29
2017-01-20T07:24:40.110Z,-9.27
2017-01-20T07:25:40.091Z,-9.15
2017-01-20T07:26:40.067Z,-9.09
2017-01-20T07:27:40.049Z,-9.16
2017-01-20T07:28:40.023Z,-9.13
2017-01-20T07:29:40.001Z,-9.13
2017-01-20T07:30:40.000Z,-9.06
2017-01-20T07:31:39.961Z,-9.15
2017-01-20T07:32:39.936Z,-9.16
2017-01-20T07:33:39.969Z,-9.15
2017-01-20T07:34:39.886Z,-9.19
2017-01-20T07:35:39.892Z,-9.12
2017-01-20T07:36:39.846Z,-9.23
2017-01-20T07:37:39.824Z,-9.13
2017-01-20T07:38:39.796Z,-9.15
2017-01-20T07:39:39.776Z,-9.16
2017-01-20T07:40:39.754Z,-9.15
2017-01-20T07:41:39.730Z,-9.2
2017-01-20T07:42:39.705Z,-9.27
2017-01-20T07:43:39.691Z,-9.23
2017-01-20T07:44:39.662Z,-9.26
2017-01-20T07:45:39.639Z,-9.2
2017-01-20T07:46:39.613Z,-9.19
2017-01-20T07:47:39.595Z,-9.19
2017-01-20T07:48:39.571Z,-9.06
2017-01-20T07:49:39.550Z,-9.04
2017-01-20T07:50:39.526Z,-8.96
2017-01-20T07:51:39.503Z,-9.01
2017-01-20T07:52:39.485Z,-8.95
2017-01-20T07:53:39.465Z,-8.8
2017-01-20T07:54:39.435Z,-8.84
2017-01-20T07:55:39.415Z,-8.76
2017-01-20T07:56:39.393Z,-8.72
2017-01-20T07:57:39.374Z,-8.7
2017-01-20T07:58:39.347Z,-8.62
2017-01-20T07:59:39.326Z,-8.49
2017-01-20T08:00:39.304Z,-8.38
2017-01-20T08:01:39.283Z,-8.2
2017-01-20T08:02:39.258Z,-8.16
2017-01-20T08:03:39.238Z,-8.05
2017-01-20T08:04:39.213Z,-8.07
2017-01-20T08:05:39.190Z,-7.88
2017-01-20T08:06:39.169Z,-7.75
2017-01-20T08:07:39.152Z,-7.73
2017-01-20T08:08:39.126Z,-7.69
2017-01-20T08:09:39.102Z,-7.63
2017-01-20T08:10:39.082Z,-7.47
2017-01-20T08:11:39.057Z,-7.38
2017-01-20T08:12:39.040Z,-7.33
2017-01-20T08:13:39.018Z,-7.16
2017-01-20T08:14:38.991Z,-7.12
2017-01-20T08:15:38.968Z,-7.06
2017-01-20T08:16:38.946Z,-7.06
2017-01-20T08:17:38.925Z,-6.89
2017-01-20T08:18:38.906Z,-6.71
2017-01-20T08:19:38.880Z,-6.68
2017-01-20T08:20:38.867Z,-6.65
2017-01-20T08:21:38.843Z,-6.6
2017-01-20T08:22:38.816Z,-6.51
2017-01-20T08:23:38.798Z,-6.38
2017-01-20T08:24:38.776Z,-6.37
2017-01-20T08:25:38.762Z,-6.34
2017-01-20T08:26:38.765Z,-6.33
2017-01-20T08:27:38.709Z,-6.28
2017-01-20T08:28:38.690Z,-6.18
2017-01-20T08:29:38.666Z,-6.15
2017-01-20T08:30:38.645Z,-6.19
2017-01-20T08:31:38.622Z,-6.02
2017-01-20T08:32:38.734Z,-6.1
2017-01-20T08:33:38.585Z,-6.01
2017-01-20T08:34:38.558Z,-6.01
2017-01-20T08:35:38.937Z,-5.97
2017-01-20T08:36:38.517Z,-5.98
2017-01-20T08:37:38.502Z,-5.86
2017-01-20T08:38:38.475Z,-5.81
2017-01-20T08:39:38.454Z,-5.79
2017-01-20T08:40:38.440Z,-5.79
2017-01-20T08:41:38.412Z,-5.81
2017-01-20T08:42:38.397Z,-5.7
2017-01-20T08:43:38.368Z,-5.66
2017-01-20T08:44:38.358Z,-5.63
2017-01-20T08:45:38.324Z,-5.5
2017-01-20T08:46:38.310Z,-5.47
2017-01-20T08:47:38.290Z,-5.29
2017-01-20T08:48:38.269Z,-5.24
2017-01-20T08:49:38.244Z,-5.07
2017-01-20T08:50:38.225Z,-5.07
2017-01-20T08:51:38.209Z,-4.92
2017-01-20T08:52:38.184Z,-4.9
2017-01-20T08:53:38.168Z,-4.73
2017-01-20T08:54:38.145Z,-4.61
2017-01-20T08:55:38.124Z,-4.55
2017-01-20T08:56:38.109Z,-4.48
2017-01-20T08:57:38.086Z,-4.33
2017-01-20T08:58:38.061Z,-4.3
2017-01-20T08:59:38.050Z,-4.14
2017-01-20T09:00:38.024Z,-4.04
2017-01-20T09:01:38.004Z,-4.01
2017-01-20T09:02:37.989Z,-3.82
2017-01-20T09:03:37.964Z,-3.76
2017-01-20T09:04:37.948Z,-3.56
2017-01-20T09:05:37.925Z,-3.45
2017-01-20T09:06:37.906Z,-3.38
2017-01-20T09:07:37.889Z,-3.33
2017-01-20T09:08:37.867Z,-3.15
2017-01-20T09:09:37.852Z,-3.18
2017-01-20T09:10:37.824Z,-3.03
2017-01-20T09:11:37.810Z,-2.96
2017-01-20T09:12:37.793Z,-2.85
2017-01-20T09:13:37.768Z,-2.75
2017-01-20T09:14:37.749Z,-2.61
2017-01-20T09:15:37.731Z,-2.54
2017-01-20T09:16:37.713Z,-2.44
2017-01-20T09:17:37.694Z,-2.36
2017-01-20T09:18:37.676Z,-2.42
2017-01-20T09:19:37.655Z,-2.39
2017-01-20T09:20:37.639Z,-2.25
2017-01-20T09:21:37.616Z,-2.25
2017-01-20T09:22:37.597Z,-2.14
2017-01-20T09:23:37.584Z,-2.09
2017-01-20T09:24:37.561Z,-1.99
2017-01-20T09:25:37.549Z,-1.99
2017-01-20T09:26:37.524Z,-1.81
2017-01-20T09:27:37.506Z,-1.74
2017-01-20T09:28:37.486Z,-1.7
2017-01-20T09:29:37.471Z,-1.61
2017-01-20T09:30:37.451Z,-1.63
2017-01-20T09:31:37.430Z,-1.61
2017-01-20T09:32:37.421Z,-1.64
2017-01-20T09:33:37.392Z,-1.5
2017-01-20T09:34:37.378Z,-1.48
2017-01-20T09:35:37.357Z,-1.37
2017-01-20T09:36:37.340Z,-1.34
2017-01-20T09:37:37.324Z,-1.25
2017-01-20T09:38:37.302Z,-1.21
2017-01-20T09:39:37.291Z,-1.22
2017-01-20T09:40:37.297Z,-1.13
2017-01-20T09:41:37.252Z,-0.99
2017-01-20T09:42:37.236Z,-0.98
2017-01-20T09:43:37.217Z,-0.77
2017-01-20T09:44:37.196Z,-0.66
2017-01-20T09:45:37.183Z,-0.61
2017-01-20T09:46:37.162Z,-0.56
2017-01-20T09:47:37.145Z,-0.52
2017-01-20T09:48:37.126Z,-0.51
2017-01-20T09:49:37.109Z,-0.3
2017-01-20T09:50:37.095Z,-0.34
2017-01-20T09:51:37.079Z,-0.22
2017-01-20T09:52:37.061Z,-0.07
2017-01-20T09:53:37.043Z,0.01
2017-01-20T09:54:37.025Z,0.1
2017-01-20T09:55:37.009Z,0.16
2017-01-20T09:56:36.991Z,0.2
2017-01-20T09:57:36.972Z,0.09
2017-01-20T09:58:36.963Z,0.14
2017-01-20T09:59:36.943Z,0.13
2017-01-20T10:00:36.923Z,0.23
2017-01-20T10:01:36.904Z,0.13
2017-01-20T10:02:36.892Z,0.32
2017-01-20T10:03:36.912Z,0.42
2017-01-20T10:04:36.851Z,0.37
2017-01-20T10:05:36.837Z,0.41
2017-01-20T10:06:36.816Z,0.39
2017-01-20T10:07:36.805Z,0.27
2017-01-20T10:08:36.783Z,0.2
2017-01-20T10:09:36.772Z,0.16
2017-01-20T10:10:36.784Z,0.1
2017-01-20T10:11:36.739Z,0.14
2017-01-20T10:12:36.721Z,0.13
2017-01-20T10:13:36.706Z,0.13
2017-01-20T10:14:36.687Z,0.13
2017-01-20T10:15:36.672Z,0.06
2017-01-20T10:16:36.655Z,0.06
2017-01-20T10:17:36.646Z,-0.22
2017-01-20T10:18:36.618Z,-0.3
2017-01-20T10:19:37.000Z,-0.36
2017-01-20T10:20:36.585Z,-0.38
2017-01-20T10:21:36.571Z,-0.23
2017-01-20T10:22:36.552Z,-0.23
2017-01-20T10:23:36.536Z,-0.1
2017-01-20T10:24:36.522Z,-0.1
2017-01-20T10:25:36.501Z,-0.2
2017-01-20T10:26:36.483Z,-0.01
2017-01-20T10:27:36.470Z,-0.02
2017-01-20T10:28:36.479Z,-0.05
2017-01-20T10:29:36.434Z,-0.13
2017-01-20T10:30:36.418Z,-0.13
2017-01-20T10:31:36.401Z,-0.2
2017-01-20T10:32:36.390Z,-0.23
2017-01-20T10:33:36.366Z,-0.23
2017-01-20T10:34:36.353Z,-0.27
2017-01-20T10:35:36.333Z,-0.3
2017-01-20T10:36:36.317Z,-0.13
2017-01-20T10:37:36.304Z,-0.15
2017-01-20T10:38:36.284Z,0.02
2017-01-20T10:39:36.274Z,0.02
2017-01-20T10:40:36.249Z,0.06
2017-01-20T10:41:36.231Z,0.17
2017-01-20T10:42:36.215Z,0.2
2017-01-20T10:43:36.202Z,0.34
2017-01-20T10:44:36.185Z,0.37
2017-01-20T10:45:36.166Z,0.47
2017-01-20T10:46:36.152Z,0.37
2017-01-20T10:47:36.132Z,0.35
2017-01-20T10:48:36.113Z,0.47
2017-01-20T10:49:36.096Z,0.48
2017-01-20T10:50:36.081Z,0.48
2017-01-20T10:51:36.066Z,0.52
2017-01-20T10:52:36.048Z,0.63
2017-01-20T10:53:36.033Z,0.66
2017-01-20T10:54:36.017Z,0.78
2017-01-20T10:55:36.004Z,0.81
2017-01-20T10:56:35.977Z,0.94
2017-01-20T10:57:35.964Z,0.89
2017-01-20T10:58:35.951Z,0.86
2017-01-20T10:59:35.931Z,0.89
2017-01-20T11:00:35.916Z,0.86
2017-01-20T11:01:35.898Z,0.86
2017-01-20T11:02:35.885Z,0.96
2017-01-20T11:03:35.867Z,0.94
2017-01-20T11:04:35.852Z,0.93
2017-01-20T11:05:35.833Z,1.12
2017-01-20T11:06:35.818Z,1.08
2017-01-20T11:07:35.831Z,0.97
2017-01-20T11:08:35.783Z,1.1
2017-01-20T11:09:35.769Z,1.07
2017-01-20T11:10:35.750Z,1
2017-01-20T11:11:35.734Z,0.93
2017-01-20T11:12:35.717Z,0.84
2017-01-20T11:13:35.699Z,0.79
2017-01-20T11:14:35.683Z,0.84
2017-01-20T11:15:35.668Z,0.84
2017-01-20T11:16:35.652Z,0.76
2017-01-20T11:17:35.639Z,0.72
2017-01-20T11:18:35.619Z,0.82
2017-01-20T11:19:35.605Z,0.89
2017-01-20T11:20:35.586Z,0.97
2017-01-20T11:21:35.570Z,1.07
2017-01-20T11:22:35.552Z,1.18
2017-01-20T11:23:35.540Z,1.3
2017-01-20T11:24:35.517Z,1.32
2017-01-20T11:25:35.507Z,1.33
2017-01-20T11:26:35.493Z,1.56
2017-01-20T11:27:35.473Z,1.56
2017-01-20T11:28:35.458Z,1.53
2017-01-20T11:29:35.441Z,1.76
2017-01-20T11:30:35.423Z,1.86
2017-01-20T11:31:35.410Z,1.84
2017-01-20T11:32:35.389Z,1.97
2017-01-20T11:33:35.378Z,2.06
2017-01-20T11:34:35.365Z,2.12
2017-01-20T11:35:35.349Z,2.18
2017-01-20T11:36:35.331Z,2.2
2017-01-20T11:37:35.311Z,2.29
2017-01-20T11:38:35.299Z,2.36
2017-01-20T11:39:35.280Z,2.47
2017-01-20T11:40:35.305Z,2.42
2017-01-20T11:41:35.254Z,2.54
2017-01-20T11:42:35.233Z,2.55
2017-01-20T11:43:35.221Z,2.59
2017-01-20T11:44:35.205Z,2.55
2017-01-20T11:45:35.191Z,2.52
2017-01-20T11:46:35.174Z,2.4
2017-01-20T11:47:35.159Z,2.33
2017-01-20T11:48:35.152Z,2.27
2017-01-20T11:49:35.127Z,2.31
2017-01-20T11:50:35.115Z,2.45
2017-01-20T11:51:35.100Z,2.51
2017-01-20T11:52:35.084Z,2.55
2017-01-20T11:53:35.091Z,2.58
2017-01-20T11:54:35.050Z,2.58
2017-01-20T11:55:35.035Z,2.44
2017-01-20T11:56:35.024Z,2.41
2017-01-20T11:57:35.007Z,2.33
2017-01-20T11:58:34.990Z,2.22
2017-01-20T11:59:34.975Z,2.13
2017-01-20T12:00:34.963Z,2.16
2017-01-20T12:01:34.946Z,2.06
2017-01-20T12:02:34.926Z,2.05
2017-01-20T12:03:34.916Z,1.98
2017-01-20T12:04:34.899Z,1.89
2017-01-20T12:05:34.883Z,1.82
2017-01-20T12:06:34.871Z,1.87
2017-01-20T12:07:34.855Z,1.86
2017-01-20T12:08:35.235Z,1.87
2017-01-20T12:09:34.822Z,1.84
2017-01-20T12:10:34.810Z,1.72
2017-01-20T12:11:34.794Z,1.57
2017-01-20T12:12:34.774Z,1.66
2017-01-20T12:13:34.760Z,1.56
2017-01-20T12:14:34.742Z,1.69
2017-01-20T12:15:34.734Z,1.64
2017-01-20T12:16:34.715Z,1.56
2017-01-20T12:17:34.699Z,1.76
2017-01-20T12:18:34.681Z,1.82
2017-01-20T12:19:34.669Z,1.71
2017-01-20T12:20:34.651Z,1.75
2017-01-20T12:21:34.640Z,1.76
2017-01-20T12:22:34.618Z,1.64
2017-01-20T12:23:34.602Z,1.76
2017-01-20T12:24:34.984Z,1.9
2017-01-20T12:25:34.572Z,1.87
2017-01-20T12:26:34.556Z,2.02
2017-01-20T12:27:34.542Z,2.02
2017-01-20T12:28:34.530Z,2.08
2017-01-20T12:29:34.513Z,2.12
2017-01-20T12:30:34.496Z,2.09
2017-01-20T12:31:34.481Z,2.16
2017-01-20T12:32:34.464Z,2.12
2017-01-20T12:33:34.451Z,2.3
2017-01-20T12:34:34.432Z,2.29
2017-01-20T12:35:34.414Z,2.34
2017-01-20T12:36:34.418Z,2.34
2017-01-20T12:37:34.389Z,2.36
2017-01-20T12:38:34.372Z,2.44
2017-01-20T12:39:34.356Z,2.4
2017-01-20T12:40:34.344Z,2.41
2017-01-20T12:41:34.324Z,2.33
2017-01-20T12:42:34.313Z,2.33
2017-01-20T12:43:34.295Z,2.2
2017-01-20T12:44:34.282Z,2.12
2017-01-20T12:45:34.263Z,2.06
2017-01-20T12:46:34.647Z,1.94
2017-01-20T12:47:34.234Z,1.71
2017-01-20T12:48:34.218Z,1.6
2017-01-20T12:49:34.211Z,1.51
2017-01-20T12:50:34.193Z,1.44
2017-01-20T12:51:34.172Z,1.38
2017-01-20T12:52:34.162Z,1.35